Time;durP1;ratioP1;P1;durP2;ratioP2;P2;SDS_P1;SDS_P2;PMS_P1;PMS_P2;Temp;Humidity;BMP_temperature;BMP_pressure;BME280_temperature;BME280_humidity;BME280_pressure;Samples;Min_cycle;Max_cycle;Signal;HPM_P1;HPM_P2
2022/07/29 00:02:08;;;;;;;4.10;2.10;;;;;;;24.74;47.00;98713.25;5010274;28;20433;-59
2022/07/29 00:04:53;;;;;;;2.90;2.20;;;;;;;24.70;46.87;98709.31;4997343;28;20061;-61
2022/07/29 00:07:40;;;;;;;3.30;2.22;;;;;;;24.54;47.45;98702.44;5011170;28;20122;-60
2022/07/29 00:10:25;;;;;;;2.70;2.10;;;;;;;24.62;46.87;98715.66;5023498;28;20050;-61
2022/07/29 00:13:10;;;;;;;2.50;2.20;;;;;;;24.49;46.20;98711.06;5023361;28;20052;-61
2022/07/29 00:15:55;;;;;;;4.60;2.40;;;;;;;24.36;47.42;98717.16;5010321;28;20057;-60
2022/07/29 00:18:39;;;;;;;3.35;2.38;;;;;;;24.56;47.06;98721.81;5010197;28;20034;-60
2022/07/29 00:21:24;;;;;;;5.28;2.45;;;;;;;24.03;47.87;98729.25;5010382;28;20402;-61
2022/07/29 00:24:09;;;;;;;3.15;2.22;;;;;;;23.62;48.75;98726.25;4999301;28;20037;-60
2022/07/29 00:26:54;;;;;;;4.45;2.08;;;;;;;23.62;48.12;98722.75;5021576;28;20073;-62
2022/07/29 00:29:38;;;;;;;3.80;2.55;;;;;;;22.98;49.42;98725.97;5025974;28;20458;-62
2022/07/29 00:32:23;;;;;;;3.45;2.40;;;;;;;22.67;50.89;98719.00;5013235;28;20053;-62
2022/07/29 00:38:14;;;;;;;2.72;2.13;;;;;;;22.58;50.08;98728.09;5003575;28;20096;-62
2022/07/29 00:40:58;;;;;;;4.32;2.42;;;;;;;22.52;50.10;98732.34;5012824;28;20083;-61
2022/07/29 00:43:44;;;;;;;3.45;1.92;;;;;;;22.69;49.91;98725.00;5013267;28;20042;-61
2022/07/29 00:46:28;;;;;;;3.53;2.75;;;;;;;22.61;50.72;98730.44;5000394;28;20040;-61
2022/07/29 00:49:13;;;;;;;3.25;2.47;;;;;;;22.59;50.35;98737.75;5013932;28;20367;-62
2022/07/29 00:52:00;;;;;;;3.67;2.42;;;;;;;22.72;49.61;98732.63;5014471;28;20038;-62
2022/07/29 00:54:44;;;;;;;4.20;2.30;;;;;;;22.28;50.66;98731.59;5022096;28;20041;-61
2022/07/29 00:57:29;;;;;;;3.05;2.15;;;;;;;22.47;50.69;98734.75;4985466;28;20057;-62
2022/07/29 01:00:23;;;;;;;3.20;2.40;;;;;;;22.32;50.81;98732.06;5013545;28;20476;-61
2022/07/29 01:03:08;;;;;;;3.35;2.53;;;;;;;22.26;51.32;98733.63;5013268;28;20029;-61
2022/07/29 01:05:54;;;;;;;3.60;2.42;;;;;;;22.34;50.58;98727.38;5012380;28;20052;-61
2022/07/29 01:08:40;;;;;;;6.13;2.47;;;;;;;21.93;52.07;98721.44;5003255;28;20125;-62
2022/07/29 01:11:25;;;;;;;3.22;2.60;;;;;;;21.83;52.46;98718.19;5026054;28;20533;-62
2022/07/29 01:14:11;;;;;;;5.20;2.78;;;;;;;22.02;51.78;98724.84;5022876;28;20137;-62
2022/07/29 01:17:06;;;;;;;3.95;2.25;;;;;;;21.95;52.04;98723.91;4998774;28;20091;-61
2022/07/29 01:20:08;;;;;;;3.40;2.53;;;;;;;21.74;52.42;98715.53;5020568;28;20045;-62
2022/07/29 01:23:15;;;;;;;5.00;2.47;;;;;;;22.36;51.28;98720.03;5021086;28;20577;-61
2022/07/29 01:26:23;;;;;;;4.22;2.63;;;;;;;22.11;52.63;98721.09;5008293;28;20038;-62
2022/07/29 01:29:22;;;;;;;3.50;2.30;;;;;;;22.51;52.09;98718.16;5000498;28;20034;-61
2022/07/29 01:32:12;;;;;;;3.65;2.38;;;;;;;22.50;51.47;98713.84;5013089;28;20124;-60
2022/07/29 01:35:08;;;;;;;2.97;2.42;;;;;;;22.42;51.90;98711.28;5012321;28;20052;-61
2022/07/29 01:38:09;;;;;;;4.82;2.33;;;;;;;22.65;51.52;98715.72;5012015;28;20045;-62
2022/07/29 01:41:02;;;;;;;3.15;2.53;;;;;;;22.55;50.81;98713.31;5012956;28;20053;-60
2022/07/29 01:43:47;;;;;;;4.82;2.30;;;;;;;22.85;50.51;98709.81;5025298;28;20113;-62
2022/07/29 01:46:36;;;;;;;3.50;2.67;;;;;;;22.85;50.03;98705.28;5025820;28;20108;-61
2022/07/29 01:49:26;;;;;;;3.65;2.42;;;;;;;22.51;50.75;98712.00;5016070;28;20049;-62
2022/07/29 01:52:19;;;;;;;3.97;2.45;;;;;;;22.37;50.96;98708.34;5012613;28;20038;-61
2022/07/29 01:55:11;;;;;;;3.40;2.20;;;;;;;22.58;50.70;98715.59;5002567;28;20501;-62
2022/07/29 01:57:58;;;;;;;4.57;2.53;;;;;;;22.17;51.94;98716.88;5017162;28;20037;-61
2022/07/29 02:00:46;;;;;;;3.50;2.40;;;;;;;22.33;51.71;98712.34;5007360;28;20046;-66
2022/07/29 02:03:35;;;;;;;4.90;2.45;;;;;;;22.56;51.38;98709.59;5012886;28;20065;-62
2022/07/29 02:06:22;;;;;;;3.72;2.38;;;;;;;22.41;51.67;98709.59;5012930;28;20145;-61
2022/07/29 02:09:10;;;;;;;2.67;2.20;;;;;;;22.54;50.83;98716.16;5011790;28;20042;-62
2022/07/29 02:11:56;;;;;;;3.13;2.25;;;;;;;23.21;49.66;98719.66;5013626;28;20113;-63
2022/07/29 02:14:45;;;;;;;6.57;2.25;;;;;;;23.29;50.10;98715.22;5012423;28;20100;-60
2022/07/29 02:17:39;;;;;;;3.63;2.40;;;;;;;23.61;49.28;98713.91;5012235;28;20045;-62
2022/07/29 02:20:25;;;;;;;3.33;2.17;;;;;;;23.35;49.33;98704.59;5000004;28;20049;-61
2022/07/29 02:23:12;;;;;;;3.78;2.60;;;;;;;22.57;51.26;98705.91;5011699;28;20371;-61
2022/07/29 02:25:58;;;;;;;3.15;2.45;;;;;;;22.18;52.17;98707.03;5025620;28;20029;-61
2022/07/29 02:28:45;;;;;;;6.03;2.60;;;;;;;21.93;53.24;98709.94;5010810;28;20121;-61
2022/07/29 02:31:34;;;;;;;3.35;2.45;;;;;;;22.05;53.29;98715.66;5025514;28;20541;-62
2022/07/29 02:34:20;;;;;;;3.65;2.47;;;;;;;21.84;53.89;98710.00;5014182;28;20367;-62
2022/07/29 02:37:05;;;;;;;4.43;2.33;;;;;;;22.27;53.28;98708.59;5011093;28;20042;-61
2022/07/29 02:39:53;;;;;;;3.22;2.33;;;;;;;21.65;54.76;98704.16;5012036;28;20046;-62
2022/07/29 02:42:42;;;;;;;5.80;2.60;;;;;;;21.73;54.93;98699.75;5011157;28;20042;-62
2022/07/29 02:45:28;;;;;;;3.67;2.53;;;;;;;21.64;55.33;98705.13;5010711;28;20195;-61
2022/07/29 02:48:16;;;;;;;5.05;2.72;;;;;;;21.78;55.33;98713.38;5011971;28;20328;-62
2022/07/29 02:51:10;;;;;;;2.97;2.35;;;;;;;21.89;54.87;98709.47;5021481;28;20054;-61
2022/07/29 02:53:59;;;;;;;5.43;2.63;;;;;;;21.61;56.03;98705.50;5011687;28;20037;-65
2022/07/29 02:56:45;;;;;;;2.88;2.22;;;;;;;21.78;55.69;98708.91;5011078;28;20038;-62
2022/07/29 02:59:35;;;;;;;4.68;2.60;;;;;;;21.81;55.91;98702.38;5009601;28;20038;-63
2022/07/29 03:02:21;;;;;;;3.67;2.72;;;;;;;21.96;55.25;98697.06;5021623;28;20034;-62
2022/07/29 03:05:09;;;;;;;4.45;2.58;;;;;;;21.72;55.63;98701.59;5009352;28;20034;-60
2022/07/29 03:08:05;;;;;;;3.13;2.67;;;;;;;22.21;54.42;98698.66;5009710;28;20041;-64
2022/07/29 03:10:51;;;;;;;4.32;2.45;;;;;;;21.73;55.84;98699.75;5006045;28;20049;-61
2022/07/29 03:13:37;;;;;;;3.00;2.35;;;;;;;21.82;55.60;98706.69;5008131;28;20034;-60
2022/07/29 03:16:23;;;;;;;6.15;2.75;;;;;;;21.73;55.78;98703.25;5022503;28;20049;-60
2022/07/29 03:19:08;;;;;;;3.55;2.53;;;;;;;21.92;55.58;98703.75;5020360;28;20080;-61
2022/07/29 03:21:56;;;;;;;4.13;2.33;;;;;;;21.86;55.38;98715.16;5008766;28;20037;-61
2022/07/29 03:24:41;;;;;;;2.78;2.08;;;;;;;22.11;54.95;98704.25;5011105;28;20471;-63
2022/07/29 03:27:25;;;;;;;4.03;2.60;;;;;;;22.21;54.92;98704.81;5000386;28;20092;-61
2022/07/29 03:30:12;;;;;;;3.30;2.35;;;;;;;22.02;55.43;98719.50;5011107;28;20038;-59
2022/07/29 03:32:58;;;;;;;3.50;2.40;;;;;;;21.76;55.75;98710.88;5011340;28;20437;-60
2022/07/29 03:35:42;;;;;;;7.70;2.80;;;;;;;21.55;57.23;98708.88;5009775;28;20042;-60
2022/07/29 03:38:33;;;;;;;2.80;2.50;;;;;;;21.89;57.06;98720.97;5010856;28;20056;-58
2022/07/29 03:41:19;;;;;;;3.38;2.40;;;;;;;21.84;56.13;98714.50;5011225;28;20104;-59
2022/07/29 03:44:06;;;;;;;4.35;2.60;;;;;;;21.69;57.01;98715.25;5023190;28;20441;-61
2022/07/29 03:46:55;;;;;;;4.10;2.70;;;;;;;21.60;56.96;98716.34;5010440;28;20099;-60
2022/07/29 03:49:42;;;;;;;9.57;2.60;;;;;;;21.77;56.73;98717.03;5010335;28;20073;-61
2022/07/29 03:52:27;;;;;;;3.45;2.40;;;;;;;21.49;57.32;98713.09;5011398;28;20117;-60
2022/07/29 03:55:14;;;;;;;3.53;2.67;;;;;;;21.70;57.64;98718.75;5020801;28;20038;-61
2022/07/29 03:58:03;;;;;;;4.70;3.13;;;;;;;21.86;56.56;98715.16;5008983;28;20041;-60
2022/07/29 04:00:48;;;;;;;3.72;2.53;;;;;;;21.86;57.17;98715.16;5010057;28;20038;-60
2022/07/29 04:03:34;;;;;;;3.47;2.80;;;;;;;22.10;56.03;98719.44;5037459;28;20069;-61
2022/07/29 04:06:19;;;;;;;4.15;2.65;;;;;;;21.92;57.00;98733.09;5029995;28;20111;-61
2022/07/29 04:09:05;;;;;;;4.30;2.63;;;;;;;22.06;56.78;98728.81;5015293;28;20501;-59
2022/07/29 04:11:52;;;;;;;3.20;2.75;;;;;;;22.12;56.48;98721.91;5014084;28;20468;-60
2022/07/29 04:14:37;;;;;;;2.83;2.47;;;;;;;22.39;55.55;98719.66;5016745;28;20045;-60
2022/07/29 04:17:21;;;;;;;3.83;2.83;;;;;;;22.05;56.09;98729.00;5024065;28;20046;-60
2022/07/29 04:20:07;;;;;;;5.00;2.40;;;;;;;22.30;55.31;98726.06;5013412;28;20029;-59
2022/07/29 04:22:51;;;;;;;3.13;2.30;;;;;;;22.30;55.79;98726.91;5013654;28;20430;-60
2022/07/29 04:25:40;;;;;;;3.45;2.53;;;;;;;22.24;55.71;98733.81;5014903;28;20068;-60
2022/07/29 04:28:25;;;;;;;3.88;2.60;;;;;;;22.11;55.88;98736.28;5001868;28;20054;-61
2022/07/29 04:31:13;;;;;;;4.32;2.60;;;;;;;21.93;56.98;98723.25;5023225;28;20042;-60
2022/07/29 04:33:58;;;;;;;5.47;2.65;;;;;;;21.84;56.56;98728.66;5012687;28;20041;-59
2022/07/29 04:36:44;;;;;;;3.55;2.40;;;;;;;22.03;56.47;98727.31;5014109;28;20065;-60
2022/07/29 04:39:29;;;;;;;6.15;2.42;;;;;;;21.98;56.22;98728.88;5022500;28;20033;-60
2022/07/29 04:42:14;;;;;;;5.78;2.40;;;;;;;22.08;56.17;98729.44;5017967;28;20042;-60
2022/07/29 04:45:17;;;;;;;3.42;2.38;;;;;;;22.46;55.11;98720.56;5011822;28;20482;-61
2022/07/29 04:48:07;;;;;;;6.22;2.97;;;;;;;22.35;55.70;98718.34;5002330;28;20620;-61
2022/07/29 04:50:52;;;;;;;3.15;2.55;;;;;;;22.43;54.83;98720.94;5011411;28;20045;-60
2022/07/29 04:53:37;;;;;;;4.80;3.00;;;;;;;22.17;55.67;98729.38;5014051;28;20042;-60
2022/07/29 04:56:21;;;;;;;2.90;2.25;;;;;;;22.41;55.06;98722.94;5006349;28;20045;-61
2022/07/29 04:59:38;;;;;;;4.03;2.40;;;;;;;22.60;54.72;98726.13;5029000;28;20386;-63
2022/07/29 05:03:12;;;;;;;3.83;2.47;;;;;;;22.24;55.97;98725.81;4983702;28;20613;-60
2022/07/29 05:09:35;;;;;;;4.15;2.75;;;;;;;22.61;54.22;98733.94;5010796;28;20034;-59
2022/07/29 05:12:20;;;;;;;3.40;2.80;;;;;;;22.60;55.23;98734.97;5013956;28;20374;-60
2022/07/29 05:15:05;;;;;;;4.10;2.60;;;;;;;22.52;55.22;98735.03;5011710;28;20081;-59
2022/07/29 05:17:50;;;;;;;4.15;2.60;;;;;;;22.49;54.48;98733.53;5011759;28;20046;-65
2022/07/29 05:20:35;;;;;;;3.22;2.50;;;;;;;22.56;55.05;98730.97;5002792;28;20038;-59
2022/07/29 05:23:20;;;;;;;10.93;4.55;;;;;;;22.88;55.16;98734.28;5015113;28;20034;-66
2022/07/29 05:26:06;;;;;;;25.92;11.52;;;;;;;22.91;54.58;98726.91;5016345;28;20053;-58
2022/07/29 05:28:50;;;;;;;8.35;5.07;;;;;;;23.44;54.51;98732.03;5008552;28;20042;-59
2022/07/29 05:31:35;;;;;;;6.60;4.05;;;;;;;23.42;54.17;98731.41;5012962;28;20136;-60
2022/07/29 05:34:20;;;;;;;4.28;3.53;;;;;;;23.36;53.16;98740.97;5025848;28;20540;-58
2022/07/29 05:37:05;;;;;;;4.82;3.17;;;;;;;23.50;52.68;98739.28;5010162;28;20042;-59
2022/07/29 05:39:49;;;;;;;6.47;3.30;;;;;;;23.83;52.68;98734.44;5010607;28;20041;-59
2022/07/29 05:42:34;;;;;;;4.57;3.00;;;;;;;23.46;51.82;98734.53;5011492;28;20042;-59
2022/07/29 05:45:19;;;;;;;3.55;3.03;;;;;;;23.53;52.43;98739.94;5011797;28;20068;-59
2022/07/29 05:48:04;;;;;;;6.40;3.35;;;;;;;23.06;52.65;98727.69;5018770;28;20037;-59
2022/07/29 05:50:48;;;;;;;4.72;3.00;;;;;;;22.86;53.65;98738.16;5015623;28;20061;-60
2022/07/29 05:53:33;;;;;;;4.47;2.95;;;;;;;22.94;53.44;98738.06;4997266;28;20038;-69
2022/07/29 05:56:18;;;;;;;4.30;3.35;;;;;;;23.01;53.22;98738.13;5012717;28;20042;-70
2022/07/29 05:59:03;;;;;;;6.00;3.20;;;;;;;23.45;52.06;98732.88;5011458;28;20052;-62
2022/07/29 06:01:50;;;;;;;3.28;2.70;;;;;;;23.26;52.55;98730.59;5009470;28;20825;-60
2022/07/29 06:04:35;;;;;;;6.38;3.33;;;;;;;23.60;51.52;98740.84;5013094;28;20052;-60
2022/07/29 06:07:20;;;;;;;6.53;2.90;;;;;;;23.48;51.89;98743.19;5011106;28;20034;-60
2022/07/29 06:10:05;;;;;;;5.80;3.20;;;;;;;23.69;51.92;98733.50;5008030;28;20065;-72
2022/07/29 06:12:56;;;;;;;4.55;2.80;;;;;;;23.38;52.03;98735.44;5012754;28;20033;-70
2022/07/29 06:15:42;;;;;;;4.95;2.72;;;;;;;23.64;51.64;98734.09;5003935;28;20062;-67
2022/07/29 06:18:33;;;;;;;5.30;2.72;;;;;;;23.70;51.34;98735.97;5001807;28;20040;-68
2022/07/29 06:21:21;;;;;;;5.60;3.83;;;;;;;23.88;51.04;98732.00;5001209;28;20135;-68
2022/07/29 06:24:06;;;;;;;5.22;2.97;;;;;;;23.96;50.79;98739.91;5011421;28;20038;-69
2022/07/29 06:26:58;;;;;;;5.57;2.85;;;;;;;24.29;49.83;98726.97;5023554;28;20045;-68
2022/07/29 06:29:43;;;;;;;4.63;2.78;;;;;;;24.48;49.20;98734.31;5012434;28;20509;-72
2022/07/29 06:32:28;;;;;;;7.43;2.95;;;;;;;24.46;49.12;98738.22;5000643;28;20045;-69
2022/07/29 06:35:13;;;;;;;4.20;2.88;;;;;;;24.56;48.95;98737.88;5010290;28;20101;-72
2022/07/29 06:37:57;;;;;;;5.07;2.75;;;;;;;25.06;47.81;98740.38;5021533;28;20061;-73
2022/07/29 06:43:52;;;;;;;6.53;3.10;;;;;;;25.33;46.84;98745.00;5017438;28;20038;-75
2022/07/29 06:47:08;;;;;;;5.45;3.35;;;;;;;24.95;48.08;98746.31;5008928;28;20046;-70
2022/07/29 06:50:07;;;;;;;10.23;3.42;;;;;;;24.96;47.59;98750.63;4994357;28;20049;-56
2022/07/29 06:52:58;;;;;;;6.60;3.25;;;;;;;25.30;49.14;98740.03;5008006;28;20042;-60
2022/07/29 06:56:15;;;;;;;;;;;;;;;;;;;;;
2022/07/29 06:59:47;;;;;;;9.50;3.42;;;;;;;25.45;46.34;98758.63;5025045;28;20038;-69
2022/07/29 07:02:32;;;;;;;6.72;2.92;;;;;;;25.55;46.26;98750.19;5012340;28;20050;-67
2022/07/29 07:05:17;;;;;;;3.63;2.75;;;;;;;25.97;45.56;98752.72;5011223;28;20033;-67
2022/07/29 07:08:03;;;;;;;5.28;2.95;;;;;;;26.66;43.90;98755.13;5013517;28;20152;-60
2022/07/29 07:11:02;;;;;;;4.30;2.90;;;;;;;26.43;44.04;98758.28;4996172;28;20050;-72
2022/07/29 07:13:53;;;;;;;4.38;3.25;;;;;;;26.13;45.05;98754.16;4996416;28;20177;-67
2022/07/29 07:16:38;;;;;;;5.07;3.00;;;;;;;26.49;44.25;98751.25;5008023;28;20038;-70
2022/07/29 07:19:22;;;;;;;3.95;2.75;;;;;;;26.87;43.83;98747.81;5023790;28;20045;-68
2022/07/29 07:22:07;;;;;;;5.65;2.70;;;;;;;27.09;42.82;98752.09;4999403;28;20046;-68
2022/07/29 07:24:52;;;;;;;4.32;2.65;;;;;;;26.37;44.69;98745.69;5015264;28;20049;-70
2022/07/29 07:27:37;;;;;;;4.50;2.85;;;;;;;26.70;43.57;98742.09;5010210;28;20037;-69
2022/07/29 07:30:22;;;;;;;3.88;2.60;;;;;;;26.97;43.42;98746.53;5010768;28;20072;-70
2022/07/29 07:33:06;;;;;;;13.65;3.40;;;;;;;27.69;41.91;98745.56;5023973;28;20449;-69
2022/07/29 07:35:51;;;;;;;4.55;2.63;;;;;;;28.32;40.72;98739.44;5011481;28;20390;-70
2022/07/29 07:38:35;;;;;;;4.63;2.85;;;;;;;27.57;41.97;98739.22;5013004;28;20039;-67
2022/07/29 07:41:21;;;;;;;6.57;2.80;;;;;;;27.51;42.45;98740.91;5015711;28;20803;-68
2022/07/29 07:44:06;;;;;;;6.60;2.45;;;;;;;27.28;42.74;98740.41;5014970;28;20083;-69
2022/07/29 07:46:50;;;;;;;5.32;2.65;;;;;;;26.53;43.71;98747.94;5016001;28;20122;-70
2022/07/29 07:49:35;;;;;;;4.07;2.92;;;;;;;27.06;43.13;98746.09;5013646;28;20088;-70
2022/07/29 07:52:21;;;;;;;5.72;2.90;;;;;;;27.74;41.83;98748.44;5015080;28;20126;-70
2022/07/29 07:55:06;;;;;;;3.70;2.92;;;;;;;27.97;41.50;98740.78;5014034;28;20034;-70
2022/07/29 07:57:51;;;;;;;3.63;2.78;;;;;;;27.76;42.30;98749.00;5013618;28;20096;-71
2022/07/29 08:00:36;;;;;;;4.72;3.10;;;;;;;27.99;41.68;98742.19;5014790;28;20073;-72
2022/07/29 08:03:20;;;;;;;3.58;2.67;;;;;;;28.22;41.34;98739.94;5014449;28;20037;-69
2022/07/29 08:06:05;;;;;;;3.97;2.70;;;;;;;28.41;40.62;98741.63;5000798;28;20046;-69
2022/07/29 08:08:50;;;;;;;5.13;2.78;;;;;;;27.84;41.32;98747.94;5027563;28;20068;-69
2022/07/29 08:11:35;;;;;;;4.70;2.85;;;;;;;27.54;42.04;98745.84;4999823;28;20172;-69
2022/07/29 08:14:22;;;;;;;8.32;3.05;;;;;;;27.64;42.51;98748.03;5015043;28;20045;-71
2022/07/29 08:17:09;;;;;;;5.60;3.47;;;;;;;28.36;40.83;98741.50;5014540;28;20034;-70
2022/07/29 08:19:56;;;;;;;3.40;2.75;;;;;;;28.11;41.37;98755.78;5026911;28;20042;-71
2022/07/29 08:22:41;;;;;;;5.28;2.90;;;;;;;27.75;41.21;98746.53;5015059;28;20045;-72
2022/07/29 08:25:26;;;;;;;6.20;2.78;;;;;;;28.35;41.07;98750.59;5001013;28;20062;-69
2022/07/29 08:28:11;;;;;;;3.80;2.55;;;;;;;28.46;40.90;98751.75;5012778;28;20100;-69
2022/07/29 08:30:56;;;;;;;6.13;2.63;;;;;;;28.28;40.53;98747.94;5014791;28;20034;-70
2022/07/29 08:33:40;;;;;;;3.05;2.45;;;;;;;28.39;40.34;98750.97;5008148;28;20101;-69
2022/07/29 08:36:25;;;;;;;5.88;2.92;;;;;;;28.88;39.96;98756.44;4993510;28;20042;-69
2022/07/29 08:39:10;;;;;;;3.80;2.60;;;;;;;28.66;39.77;98766.84;4980300;28;20369;-70
2022/07/29 08:41:58;;;;;;;3.47;2.53;;;;;;;29.56;38.03;98752.84;4994431;28;20034;-71
2022/07/29 08:44:43;;;;;;;4.63;2.75;;;;;;;29.57;38.23;98748.28;5005889;28;20045;-70
2022/07/29 08:47:28;;;;;;;6.93;3.03;;;;;;;29.63;38.12;98753.63;4994419;28;20043;-69
2022/07/29 08:50:17;;;;;;;5.80;2.78;;;;;;;30.16;37.39;98750.28;4993839;28;20035;-70
2022/07/29 08:53:03;;;;;;;2.53;2.15;;;;;;;30.22;37.63;98759.34;4995112;28;20034;-68
2022/07/29 08:55:50;;;;;;;3.53;2.53;;;;;;;29.94;37.76;98756.25;4994247;28;20134;-70
2022/07/29 08:58:35;;;;;;;2.85;2.17;;;;;;;30.04;37.46;98752.97;5004041;28;20041;-69
2022/07/29 09:01:26;;;;;;;4.43;2.60;;;;;;;29.32;38.81;98751.97;4995059;28;20050;-69
2022/07/29 09:04:12;;;;;;;3.42;2.47;;;;;;;29.65;37.80;98755.25;4994284;28;20039;-70
2022/07/29 09:07:03;;;;;;;6.43;3.22;;;;;;;30.00;37.50;98754.47;5005271;28;20046;-70
2022/07/29 09:09:48;;;;;;;2.85;2.38;;;;;;;30.61;36.06;98759.66;4998237;28;20038;-71
2022/07/29 09:12:33;;;;;;;3.35;2.47;;;;;;;29.97;37.71;98754.94;5000818;28;20046;-71
2022/07/29 09:15:18;;;;;;;5.40;2.50;;;;;;;30.31;37.12;98757.09;4989948;28;20039;-71
2022/07/29 09:18:03;;;;;;;4.13;2.90;;;;;;;31.44;35.84;98743.41;4996974;28;20042;-70
2022/07/29 09:24:07;;;;;;;5.38;2.40;;;;;;;31.77;34.90;98743.66;4982981;28;20525;-70
2022/07/29 09:26:52;;;;;;;5.22;2.40;;;;;;;31.88;34.61;98747.34;5005950;28;20042;-69
2022/07/29 09:29:37;;;;;;;3.15;2.20;;;;;;;31.03;35.93;98743.44;5005880;28;20391;-72
2022/07/29 09:32:22;;;;;;;5.30;2.65;;;;;;;31.78;34.57;98742.63;4982068;28;20803;-70
2022/07/29 09:35:19;;;;;;;4.65;2.08;;;;;;;32.23;33.85;98738.16;5011643;28;20053;-70
2022/07/29 09:38:13;;;;;;;3.75;2.13;;;;;;;32.99;33.03;98735.03;5003621;28;20152;-70
2022/07/29 09:41:01;;;;;;;5.03;2.17;;;;;;;34.35;31.15;98731.56;5012837;28;20038;-70
2022/07/29 09:43:57;;;;;;;3.17;1.80;;;;;;;35.25;29.26;98727.03;5012900;28;20503;-70
2022/07/29 09:47:07;;;;;;;3.28;2.17;;;;;;;34.59;30.28;98729.22;5022557;28;20371;-71
2022/07/29 09:49:58;;;;;;;2.30;1.60;;;;;;;34.57;30.04;98727.88;5013313;28;20042;-72
2022/07/29 09:52:49;;;;;;;2.92;2.13;;;;;;;33.68;31.15;98721.91;4998303;28;20045;-71
2022/07/29 09:55:47;;;;;;;3.45;2.03;;;;;;;33.48;31.34;98722.50;5012974;28;20041;-69
2022/07/29 09:58:34;;;;;;;2.95;2.03;;;;;;;33.90;31.20;98719.06;5002818;28;20124;-74
2022/07/29 10:01:28;;;;;;;2.42;1.80;;;;;;;34.27;30.12;98717.41;5024906;28;20033;-69
2022/07/29 10:04:13;;;;;;;3.50;1.83;;;;;;;34.40;29.14;98707.97;5012572;28;20108;-70
2022/07/29 10:07:03;;;;;;;6.68;2.40;;;;;;;35.14;28.54;98707.09;5013139;28;20038;-67
2022/07/29 10:09:57;;;;;;;3.83;1.90;;;;;;;36.07;28.16;98691.84;5025270;28;20033;-69
2022/07/29 10:12:57;;;;;;;2.38;1.90;;;;;;;35.60;28.54;98702.78;5012722;28;20429;-69
2022/07/29 10:15:46;;;;;;;5.20;2.58;;;;;;;35.31;28.75;98694.34;5012691;28;20047;-67
2022/07/29 10:18:30;;;;;;;3.47;2.00;;;;;;;35.12;28.88;98692.94;5012036;28;20044;-74
2022/07/29 10:21:16;;;;;;;4.70;2.17;;;;;;;33.34;31.20;98698.53;5012743;28;20042;-67
2022/07/29 10:24:06;;;;;;;2.17;1.85;;;;;;;34.21;30.47;98695.91;5031227;28;20045;-60
2022/07/29 10:26:51;;;;;;;3.05;2.03;;;;;;;33.04;31.77;98699.84;5017673;28;20032;-67
2022/07/29 10:29:36;;;;;;;3.70;1.98;;;;;;;33.10;32.21;98698.84;5018583;28;20042;-71
2022/07/29 10:32:51;;;;;;;4.38;2.03;;;;;;;33.15;31.99;98693.47;5006976;28;20034;-70
2022/07/29 10:35:41;;;;;;;3.17;1.98;;;;;;;33.15;32.42;98695.38;5010750;28;20037;-72
2022/07/29 10:38:26;;;;;;;;;;;;;;;32.23;33.12;98702.97;5012653;28;20398;-71
2022/07/29 10:41:48;;;;;;;4.53;1.90;;;;;;;33.75;32.59;98692.63;5019264;28;19996;-72
2022/07/29 10:44:34;;;;;;;3.25;1.73;;;;;;;35.55;28.96;98683.72;5021003;28;20041;-71
2022/07/29 10:47:26;;;;;;;4.18;2.10;;;;;;;35.69;28.34;98678.56;5020521;28;20466;-73
2022/07/29 10:50:11;;;;;;;4.28;2.67;;;;;;;36.37;27.33;98681.13;5014409;28;20049;-73
2022/07/29 10:52:56;;;;;;;2.67;1.80;;;;;;;35.38;28.41;98675.84;5005592;28;20041;-69
2022/07/29 10:55:44;;;;;;;3.22;1.77;;;;;;;34.07;30.34;98674.63;5009090;28;20038;-73
2022/07/29 10:58:29;;;;;;;5.05;2.03;;;;;;;33.78;30.91;98666.84;5025106;28;20053;-71
2022/07/29 11:01:31;;;;;;;3.47;1.90;;;;;;;33.19;31.86;98677.50;4999104;28;20038;-72
2022/07/29 11:04:43;;;;;;;4.40;2.00;;;;;;;34.04;31.53;98678.69;5010860;28;20040;-75
2022/07/29 11:07:31;;;;;;;5.70;2.70;;;;;;;33.91;31.97;98669.13;5010174;28;20072;-73
2022/07/29 11:10:15;;;;;;;5.72;2.05;;;;;;;32.94;31.83;98670.72;5021476;28;20057;-73
2022/07/29 11:13:00;;;;;;;5.43;2.22;;;;;;;33.13;31.95;98667.69;5013741;28;20041;-71
2022/07/29 11:15:58;;;;;;;2.88;1.92;;;;;;;34.22;30.26;98665.78;5001577;28;20038;-50
2022/07/29 11:19:11;;;;;;;3.67;2.00;;;;;;;34.02;29.84;98661.84;5023447;28;20038;-68
2022/07/29 11:21:56;;;;;;;4.15;2.03;;;;;;;33.59;30.28;98666.44;5010874;28;20049;-72
2022/07/29 11:24:41;;;;;;;3.50;1.75;;;;;;;32.90;30.91;98666.91;5024694;28;20151;-72
2022/07/29 11:27:30;;;;;;;2.33;1.80;;;;;;;32.79;32.05;98652.44;5010667;28;20046;-71
2022/07/29 11:30:15;;;;;;;3.42;1.80;;;;;;;32.44;32.12;98657.16;5009497;28;20426;-72
2022/07/29 11:33:00;;;;;;;4.60;1.83;;;;;;;32.38;32.08;98660.88;5004789;28;20030;-70
2022/07/29 11:36:08;;;;;;;4.40;1.73;;;;;;;32.87;31.51;98654.66;5011152;28;20356;-70
2022/07/29 11:39:25;;;;;;;5.10;2.05;;;;;;;31.97;32.00;98667.41;5010804;28;20133;-69
2022/07/29 11:42:16;;;;;;;4.07;1.92;;;;;;;31.93;32.62;98655.38;5011555;28;20038;-69
2022/07/29 11:45:13;;;;;;;3.60;1.90;;;;;;;31.70;33.46;98655.34;5023935;28;20095;-70
2022/07/29 11:47:59;;;;;;;3.25;1.70;;;;;;;31.85;32.94;98656.63;5010500;28;20063;-70
2022/07/29 11:50:44;;;;;;;4.93;2.13;;;;;;;32.48;31.28;98650.16;5011128;28;20483;-70
2022/07/29 11:53:29;;;;;;;3.28;1.80;;;;;;;33.74;30.04;98652.16;5011513;28;20088;-70
2022/07/29 11:56:20;;;;;;;3.30;2.13;;;;;;;33.55;29.68;98644.41;5023437;28;20041;-70
2022/07/29 11:59:08;;;;;;;4.15;1.70;;;;;;;33.48;29.77;98638.38;5011224;28;20121;-69
2022/07/29 12:01:57;;;;;;;3.60;1.65;;;;;;;33.25;30.43;98635.78;5011126;28;20045;-69
2022/07/29 12:04:53;;;;;;;2.38;1.67;;;;;;;32.33;31.58;98643.47;5011225;28;20042;-69
2022/07/29 12:07:40;;;;;;;2.33;1.80;;;;;;;31.84;31.81;98636.84;5011729;28;20112;-69
2022/07/29 12:10:30;;;;;;;2.13;1.67;;;;;;;31.99;31.71;98640.88;5009882;28;20125;-69
2022/07/29 12:13:17;;;;;;;1.93;1.73;;;;;;;31.71;32.36;98642.63;5010358;28;20030;-70
2022/07/29 12:16:01;;;;;;;2.50;1.85;;;;;;;31.74;32.96;98635.91;5006102;28;20308;-69
2022/07/29 12:19:00;;;;;;;2.35;1.85;;;;;;;31.93;32.39;98633.72;5009046;28;20061;-69
2022/07/29 12:21:51;;;;;;;3.72;1.85;;;;;;;31.68;32.78;98635.03;5010481;28;20038;-69
2022/07/29 12:24:44;;;;;;;6.18;2.13;;;;;;;31.84;32.81;98623.31;5012057;28;20042;-68
2022/07/29 12:27:30;;;;;;;2.50;1.73;;;;;;;31.44;33.21;98627.06;5012225;28;20030;-70
2022/07/29 12:30:16;;;;;;;2.13;1.63;;;;;;;31.68;33.03;98616.88;5014167;28;20034;-69
2022/07/29 12:33:01;;;;;;;3.67;1.98;;;;;;;31.79;32.52;98617.88;5010159;28;20072;-71
2022/07/29 12:35:52;;;;;;;2.47;1.80;;;;;;;31.52;32.51;98615.00;5011619;28;20433;-71
2022/07/29 12:38:37;;;;;;;3.20;1.88;;;;;;;31.81;32.04;98604.06;5030829;28;20044;-68
2022/07/29 12:41:22;;;;;;;4.35;1.88;;;;;;;31.12;33.19;98606.81;5013646;28;20470;-67
2022/07/29 12:44:06;;;;;;;3.75;2.00;;;;;;;31.26;33.33;98601.88;5017195;28;20492;-78
2022/07/29 12:47:03;;;;;;;4.00;2.10;;;;;;;31.22;33.02;98606.97;5018110;28;20482;-71
2022/07/29 12:49:49;;;;;;;4.20;1.90;;;;;;;31.57;32.93;98602.38;5014704;28;20145;-73
2022/07/29 12:52:35;;;;;;;2.83;2.10;;;;;;;31.71;33.87;98593.91;5029052;28;20029;-73
2022/07/29 12:55:44;;;;;;;3.75;2.10;;;;;;;32.07;33.94;98599.03;5013531;28;20041;-71
2022/07/29 12:58:41;;;;;;;9.20;2.08;;;;;;;31.85;33.63;98602.50;5017516;28;20117;-60
2022/07/29 13:01:27;;;;;;;3.17;1.85;;;;;;;32.00;33.31;98593.78;5010082;28;20569;-64
2022/07/29 13:04:24;;;;;;;3.53;1.90;;;;;;;32.00;31.57;98592.97;5013731;28;20037;-60
2022/07/29 13:07:11;;;;;;;3.63;1.98;;;;;;;31.83;31.70;98596.50;5012458;28;20180;-57
2022/07/29 13:10:14;;;;;;;4.45;1.80;;;;;;;32.14;32.50;98585.25;5013024;28;20481;-74
2022/07/29 13:13:11;;;;;;;3.40;1.67;;;;;;;31.96;31.54;98592.63;5012664;28;20458;-78
2022/07/29 13:16:07;;;;;;;3.78;1.80;;;;;;;31.88;32.28;98593.03;5005565;28;20034;-79
2022/07/29 13:19:09;;;;;;;3.15;2.00;;;;;;;32.40;31.56;98578.25;5024884;28;20128;-70
2022/07/29 13:21:53;;;;;;;4.10;2.00;;;;;;;33.28;29.82;98581.00;5014944;28;20131;-76
2022/07/29 13:24:53;;;;;;;3.05;1.90;;;;;;;33.75;28.69;98572.34;5013141;28;20038;-71
2022/07/29 13:27:39;;;;;;;3.20;1.88;;;;;;;34.11;28.25;98575.22;5009271;28;20057;-71
2022/07/29 13:30:24;;;;;;;2.13;1.60;;;;;;;34.22;28.04;98575.28;5011545;28;20045;-75